< < Back
Terminal Aerodrome Forecast


Current Version              Previous Versions:   1  2  3  4  5  6  7  8  9  

Terminal Aerodrome Forecast

229
FTUS42 KCHS 262300
TAFSAV
TAF
KSAV 262320Z 2700/2724 29015G21KT P6SM BKN040
     FM270500 29012G17KT P6SM SCT080
     FM271400 30015G23KT P6SM SCT025 SCT060
     FM272230 30010KT P6SM SCT060=



Latest METAR

790
SAUS80 KWBC 270100 CCA
MTRSAV
METAR KSAV 270053Z 29017G22KT 10SM OVC043 09/01 A2982 RMK AO2 PK WND
29027/0009 SLP098 T00940006


USA.gov is the U.S. government's official web portal to all federal, state and local government web resources and services.